Time;durP1;ratioP1;P1;durP2;ratioP2;P2;SDS_P1;SDS_P2;PMS_P1;PMS_P2;Temp;Humidity;BMP_temperature;BMP_pressure;BME280_temperature;BME280_humidity;BME280_pressure;Samples;Min_cycle;Max_cycle;Signal;HPM_P1;HPM_P2
2023/03/02 00:01:23;;;;;;;25.30;12.00;;;3.70;99.90;;;;;;4990997;28;20054;-41
2023/03/02 00:03:49;;;;;;;26.45;13.27;;;3.70;99.90;;;;;;4999944;28;20053;-42
2023/03/02 00:06:15;;;;;;;27.42;13.32;;;3.70;99.90;;;;;;4991047;28;20553;-42
2023/03/02 00:08:41;;;;;;;24.67;11.57;;;3.70;99.90;;;;;;4996719;28;20050;-42
2023/03/02 00:11:07;;;;;;;23.33;11.70;;;3.70;99.90;;;;;;5000338;28;20514;-42
2023/03/02 00:13:35;;;;;;;22.60;10.68;;;3.70;99.90;;;;;;4998789;28;20045;-45
2023/03/02 00:16:01;;;;;;;26.25;12.20;;;3.70;99.90;;;;;;5001835;28;20061;-42
2023/03/02 00:18:27;;;;;;;25.35;11.60;;;3.70;99.90;;;;;;4999987;28;20061;-43
2023/03/02 00:20:52;;;;;;;24.38;10.80;;;3.70;99.90;;;;;;5002871;28;20049;-41
2023/03/02 00:23:18;;;;;;;22.65;10.88;;;3.70;99.90;;;;;;5001959;28;20809;-42
2023/03/02 00:25:44;;;;;;;23.73;11.70;;;3.60;99.90;;;;;;4997816;28;20553;-41
2023/03/02 00:28:09;;;;;;;24.50;12.10;;;3.60;99.90;;;;;;5012403;28;20373;-41
2023/03/02 00:30:38;;;;;;;22.73;11.90;;;3.60;99.90;;;;;;4999547;28;20475;-43
2023/03/02 00:33:03;;;;;;;25.75;11.80;;;3.60;99.90;;;;;;5002012;28;20112;-42
2023/03/02 00:35:29;;;;;;;29.50;12.07;;;3.60;99.90;;;;;;5005512;28;20042;-45
2023/03/02 00:37:55;;;;;;;24.45;10.93;;;3.60;99.90;;;;;;4998129;28;21524;-44
2023/03/02 00:40:20;;;;;;;21.05;11.32;;;3.50;99.90;;;;;;4998531;28;20062;-42
2023/03/02 00:42:46;;;;;;;20.95;10.45;;;3.50;99.90;;;;;;5000720;28;20050;-43
2023/03/02 00:45:12;;;;;;;22.63;11.18;;;3.50;99.90;;;;;;4995460;28;20064;-41
2023/03/02 00:47:38;;;;;;;19.55;10.73;;;3.50;99.90;;;;;;5003758;28;20484;-41
2023/03/02 00:50:05;;;;;;;21.10;9.82;;;3.40;99.90;;;;;;4998501;28;20064;-42
2023/03/02 00:52:32;;;;;;;25.38;10.45;;;3.40;99.90;;;;;;5000795;28;20068;-41
2023/03/02 00:54:58;;;;;;;24.63;10.75;;;3.40;99.90;;;;;;4996157;28;20180;-42
2023/03/02 00:57:24;;;;;;;22.50;11.63;;;3.30;99.90;;;;;;4998974;28;20057;-42
2023/03/02 00:59:49;;;;;;;21.23;10.88;;;3.30;99.90;;;;;;5016199;28;20111;-42
2023/03/02 01:02:15;;;;;;;21.55;10.68;;;3.30;99.90;;;;;;5000315;28;20056;-44
2023/03/02 01:04:42;;;;;;;20.27;10.65;;;3.30;99.90;;;;;;4998689;28;20050;-40
2023/03/02 01:07:13;;;;;;;19.73;10.30;;;3.20;99.90;;;;;;4998658;28;20515;-42
2023/03/02 01:09:41;;;;;;;20.75;10.85;;;3.20;99.90;;;;;;4998546;28;20049;-44
2023/03/02 01:12:09;;;;;;;18.15;10.02;;;3.20;99.90;;;;;;4996806;28;20050;-42
2023/03/02 01:14:36;;;;;;;21.10;10.43;;;3.20;99.90;;;;;;5002045;28;20085;-42
2023/03/02 01:17:03;;;;;;;17.83;10.18;;;3.10;99.90;;;;;;5002646;28;20054;-41
2023/03/02 01:19:29;;;;;;;21.77;11.10;;;3.10;99.90;;;;;;5002459;28;20136;-42
2023/03/02 01:21:54;;;;;;;20.73;10.80;;;3.10;99.90;;;;;;5002060;28;20459;-43
2023/03/02 01:24:20;;;;;;;20.55;10.25;;;3.10;99.90;;;;;;5004189;28;20053;-41
2023/03/02 01:26:46;;;;;;;19.48;10.50;;;3.10;99.90;;;;;;4998820;28;20056;-42
2023/03/02 01:29:11;;;;;;;19.65;10.57;;;3.20;99.90;;;;;;5001577;28;20108;-42
2023/03/02 01:31:38;;;;;;;21.73;10.57;;;3.20;99.90;;;;;;5005650;28;20046;-41
2023/03/02 01:34:03;;;;;;;20.67;10.95;;;3.10;99.90;;;;;;5005270;28;20087;-45
2023/03/02 01:36:29;;;;;;;18.48;10.00;;;3.10;99.90;;;;;;4998501;28;20510;-44
2023/03/02 01:38:55;;;;;;;19.92;10.68;;;3.10;99.90;;;;;;5000935;28;20376;-46
2023/03/02 01:41:21;;;;;;;17.63;9.30;;;3.00;99.90;;;;;;5003374;28;20058;-45
2023/03/02 01:43:46;;;;;;;20.65;9.93;;;3.00;99.90;;;;;;5006706;28;20081;-47
2023/03/02 01:46:18;;;;;;;21.92;10.90;;;3.00;99.90;;;;;;5004647;28;20061;-45
2023/03/02 01:48:45;;;;;;;21.58;11.10;;;3.00;99.90;;;;;;5006733;28;20065;-47
2023/03/02 01:51:15;;;;;;;21.80;11.38;;;2.90;99.90;;;;;;5004785;28;20597;-48
2023/03/02 01:53:45;;;;;;;19.65;9.60;;;2.90;99.90;;;;;;5003906;28;20053;-43
2023/03/02 01:56:19;;;;;;;20.10;9.73;;;2.90;99.90;;;;;;5003744;28;20141;-45
2023/03/02 01:58:48;;;;;;;23.33;10.18;;;2.90;99.90;;;;;;5003552;28;20099;-47
2023/03/02 02:01:14;;;;;;;20.85;10.57;;;2.90;99.90;;;;;;5003434;28;20423;-47
2023/03/02 02:03:46;;;;;;;20.80;10.52;;;2.90;99.90;;;;;;5004357;28;20049;-47
2023/03/02 02:06:24;;;;;;;24.80;11.82;;;2.90;99.90;;;;;;4999400;28;20065;-48
2023/03/02 02:08:51;;;;;;;22.58;11.20;;;2.90;99.90;;;;;;5001926;28;20491;-47
2023/03/02 02:11:18;;;;;;;23.17;11.30;;;2.90;99.90;;;;;;5003156;28;21078;-43
2023/03/02 02:13:44;;;;;;;21.67;10.70;;;2.90;99.90;;;;;;5000625;28;20061;-45
2023/03/02 02:16:10;;;;;;;24.02;10.93;;;2.80;99.90;;;;;;5001574;28;20077;-44
2023/03/02 02:18:39;;;;;;;22.33;10.85;;;2.90;99.90;;;;;;5003374;28;20050;-45
2023/03/02 02:21:05;;;;;;;23.23;12.10;;;2.80;99.90;;;;;;5000278;28;20054;-44
2023/03/02 02:23:43;;;;;;;22.17;10.48;;;2.80;99.90;;;;;;5002853;28;20499;-43
2023/03/02 02:26:08;;;;;;;22.75;11.32;;;2.80;99.90;;;;;;4996481;28;20064;-43
2023/03/02 02:29:00;;;;;;;23.85;11.43;;;2.70;99.90;;;;;;5000808;28;20050;-44
2023/03/02 02:31:34;;;;;;;23.15;10.55;;;2.70;99.90;;;;;;5000427;28;20049;-46
2023/03/02 02:34:16;;;;;;;24.90;11.93;;;2.70;99.90;;;;;;5005294;28;20495;-43
2023/03/02 02:36:46;;;;;;;26.48;12.65;;;2.70;99.90;;;;;;5006733;28;20069;-46
2023/03/02 02:39:19;;;;;;;27.05;13.43;;;2.60;99.90;;;;;;5002881;28;20131;-44
2023/03/02 02:41:48;;;;;;;24.02;12.27;;;2.60;99.90;;;;;;5002061;28;20061;-46
2023/03/02 02:44:16;;;;;;;27.17;12.07;;;2.50;99.90;;;;;;5001089;28;20096;-45
2023/03/02 02:46:43;;;;;;;27.83;11.80;;;2.50;99.90;;;;;;4998715;28;20046;-45
2023/03/02 02:49:29;;;;;;;25.83;12.00;;;2.50;99.90;;;;;;5002041;28;20380;-44
2023/03/02 02:51:54;;;;;;;28.30;12.07;;;2.50;99.90;;;;;;4998202;28;20054;-44
2023/03/02 02:54:22;;;;;;;26.15;12.20;;;2.50;99.90;;;;;;5000215;28;21577;-48
2023/03/02 02:56:50;;;;;;;25.83;12.60;;;2.50;99.90;;;;;;5000676;28;20054;-47
2023/03/02 02:59:20;;;;;;;25.85;12.40;;;2.50;99.90;;;;;;5004813;28;20115;-44
2023/03/02 03:01:48;;;;;;;26.52;12.38;;;2.50;99.90;;;;;;5001208;28;20417;-47
2023/03/02 03:04:23;;;;;;;27.77;12.68;;;2.50;99.90;;;;;;5001385;28;20103;-48
2023/03/02 03:06:58;;;;;;;26.80;12.82;;;2.50;99.90;;;;;;5000255;28;20049;-44
2023/03/02 03:09:24;;;;;;;26.30;12.40;;;2.50;99.90;;;;;;5000657;28;20084;-52
2023/03/02 03:11:58;;;;;;;32.55;13.52;;;2.50;99.90;;;;;;5001999;28;20041;-45
2023/03/02 03:14:29;;;;;;;25.85;12.85;;;2.60;99.90;;;;;;4990894;28;20041;-47
2023/03/02 03:16:55;;;;;;;29.38;12.57;;;2.60;99.90;;;;;;4992041;28;20487;-46
2023/03/02 03:19:22;;;;;;;27.75;11.88;;;2.60;99.90;;;;;;4994373;28;20132;-45
2023/03/02 03:21:51;;;;;;;27.20;12.32;;;2.60;99.90;;;;;;5000739;28;20487;-45
2023/03/02 03:24:17;;;;;;;26.67;12.90;;;2.60;99.90;;;;;;4996177;28;20049;-46
2023/03/02 03:26:43;;;;;;;30.50;14.90;;;2.60;99.90;;;;;;4997910;28;20461;-45
2023/03/02 03:29:10;;;;;;;30.08;13.18;;;2.60;99.90;;;;;;4997832;28;20112;-44
2023/03/02 03:31:36;;;;;;;29.35;13.50;;;2.60;99.90;;;;;;4995636;28;20050;-47
2023/03/02 03:34:02;;;;;;;27.73;13.73;;;2.60;99.90;;;;;;4999773;28;20054;-44
2023/03/02 03:36:30;;;;;;;27.45;13.18;;;2.60;99.90;;;;;;4999083;28;20632;-45
2023/03/02 03:38:56;;;;;;;25.33;11.57;;;2.50;99.90;;;;;;4998331;28;20056;-47
2023/03/02 03:41:22;;;;;;;25.83;12.18;;;2.50;99.90;;;;;;4997953;28;20046;-48
2023/03/02 03:43:48;;;;;;;26.17;11.52;;;2.40;99.90;;;;;;4995360;28;20065;-48
2023/03/02 03:46:13;;;;;;;27.50;11.88;;;2.40;99.90;;;;;;4995691;28;20065;-43
2023/03/02 03:48:40;;;;;;;25.00;11.95;;;2.40;99.90;;;;;;5000169;28;20057;-46
2023/03/02 03:51:05;;;;;;;26.58;12.10;;;2.40;99.90;;;;;;5000296;28;20107;-46
2023/03/02 03:53:31;;;;;;;27.38;12.85;;;2.40;99.90;;;;;;4997577;28;20049;-48
2023/03/02 03:55:57;;;;;;;28.00;12.55;;;2.40;99.90;;;;;;5000158;28;20656;-48
2023/03/02 03:58:24;;;;;;;26.38;11.98;;;2.40;99.90;;;;;;4996873;28;20084;-45
2023/03/02 04:00:50;;;;;;;27.70;11.80;;;2.40;99.90;;;;;;5001022;28;20496;-43
2023/03/02 04:03:17;;;;;;;28.13;13.00;;;2.30;99.90;;;;;;5001158;28;20115;-43
2023/03/02 04:05:42;;;;;;;23.52;11.40;;;2.30;99.90;;;;;;4999619;28;20568;-47
2023/03/02 04:08:08;;;;;;;24.08;10.80;;;2.30;99.90;;;;;;4997084;28;21633;-44
2023/03/02 04:10:34;;;;;;;27.77;12.23;;;2.30;99.90;;;;;;5001680;28;20547;-41
2023/03/02 04:13:01;;;;;;;22.67;11.85;;;2.20;99.90;;;;;;5002028;28;20133;-41
2023/03/02 04:15:26;;;;;;;27.33;11.90;;;2.20;99.90;;;;;;4995194;28;20045;-42
2023/03/02 04:17:53;;;;;;;26.25;12.60;;;2.20;99.90;;;;;;5001073;28;20539;-41
2023/03/02 04:20:19;;;;;;;28.75;12.80;;;2.20;99.90;;;;;;5001738;28;20058;-49
2023/03/02 04:22:48;;;;;;;26.13;12.20;;;2.20;99.90;;;;;;5002031;28;20120;-47
2023/03/02 04:25:18;;;;;;;26.60;12.73;;;2.20;99.90;;;;;;4999928;28;20053;-46
2023/03/02 04:27:45;;;;;;;27.30;12.75;;;2.20;99.90;;;;;;4999772;28;20058;-45
2023/03/02 04:30:12;;;;;;;28.90;13.43;;;2.20;99.90;;;;;;5000932;28;20072;-47
2023/03/02 04:32:37;;;;;;;26.85;11.77;;;2.30;99.90;;;;;;4999574;28;20052;-47
2023/03/02 04:35:04;;;;;;;30.40;13.38;;;2.30;99.90;;;;;;5002686;28;20061;-36
2023/03/02 04:37:30;;;;;;;25.50;12.15;;;2.30;99.90;;;;;;5001043;28;20148;-36
2023/03/02 04:39:56;;;;;;;27.70;12.45;;;2.30;99.90;;;;;;4999108;28;20195;-36
2023/03/02 04:42:22;;;;;;;26.85;12.27;;;2.20;99.90;;;;;;4999972;28;20072;-36
2023/03/02 04:44:48;;;;;;;24.02;11.77;;;2.20;99.90;;;;;;4998028;28;20070;-37
2023/03/02 04:47:14;;;;;;;23.25;11.38;;;2.30;99.90;;;;;;4997542;28;20057;-36
2023/03/02 04:49:40;;;;;;;25.60;11.70;;;2.20;99.90;;;;;;5001024;28;20046;-42
2023/03/02 04:52:05;;;;;;;21.45;10.07;;;2.20;99.90;;;;;;5003869;28;20071;-43
2023/03/02 04:54:31;;;;;;;20.77;9.88;;;2.20;99.90;;;;;;5005096;28;20387;-44
2023/03/02 04:56:57;;;;;;;21.50;10.65;;;2.20;99.90;;;;;;5002596;28;20520;-41
2023/03/02 04:59:26;;;;;;;18.52;8.75;;;2.20;99.90;;;;;;5003708;28;20096;-41
2023/03/02 05:01:54;;;;;;;20.40;9.20;;;2.10;99.90;;;;;;5001798;28;20619;-44
2023/03/02 05:04:20;;;;;;;20.65;10.25;;;2.10;99.90;;;;;;5002474;28;20050;-42
2023/03/02 05:06:45;;;;;;;19.00;9.02;;;2.10;99.90;;;;;;5000202;28;20042;-41
2023/03/02 05:09:12;;;;;;;21.02;10.30;;;2.10;99.90;;;;;;5002440;28;20045;-40
2023/03/02 05:11:38;;;;;;;21.33;10.50;;;2.10;99.90;;;;;;5004582;28;20513;-37
2023/03/02 05:14:06;;;;;;;19.60;9.50;;;2.10;99.90;;;;;;5001192;28;20054;-37
2023/03/02 05:16:34;;;;;;;18.90;9.35;;;2.10;99.90;;;;;;5005100;28;20475;-45
2023/03/02 05:19:01;;;;;;;20.85;8.98;;;2.10;99.90;;;;;;5003478;28;20046;-42
2023/03/02 05:21:27;;;;;;;22.55;10.98;;;2.10;99.90;;;;;;5021276;28;20061;-45
2023/03/02 05:23:53;;;;;;;20.67;9.70;;;2.00;99.90;;;;;;4996283;28;20045;-44
2023/03/02 05:26:19;;;;;;;23.60;10.38;;;2.00;99.90;;;;;;5002520;28;20531;-48
2023/03/02 05:28:45;;;;;;;21.45;10.40;;;2.00;99.90;;;;;;5007934;28;20061;-45
2023/03/02 05:31:22;;;;;;;20.63;9.40;;;2.00;99.90;;;;;;4993013;28;20482;-42
2023/03/02 05:33:48;;;;;;;23.30;11.18;;;2.00;99.90;;;;;;4999794;28;20049;-41
2023/03/02 05:36:13;;;;;;;24.15;10.45;;;2.00;99.90;;;;;;5002350;28;20521;-41
2023/03/02 05:38:39;;;;;;;21.38;10.73;;;2.00;99.90;;;;;;5005893;28;20058;-41
2023/03/02 05:41:05;;;;;;;23.48;10.48;;;2.00;99.90;;;;;;5013773;28;20057;-45
2023/03/02 05:43:31;;;;;;;22.25;10.25;;;2.00;99.90;;;;;;5000772;28;20062;-41
2023/03/02 05:45:59;;;;;;;21.05;10.10;;;2.00;99.90;;;;;;5002699;28;20196;-43
2023/03/02 05:48:29;;;;;;;23.80;10.48;;;2.00;99.90;;;;;;5005286;28;20054;-42
2023/03/02 05:50:55;;;;;;;22.73;10.45;;;2.00;99.90;;;;;;5003818;28;20060;-43
2023/03/02 05:53:21;;;;;;;22.38;9.65;;;2.00;99.90;;;;;;4999790;28;20080;-40
2023/03/02 05:55:47;;;;;;;23.83;10.68;;;1.90;99.90;;;;;;5004631;28;20050;-43
2023/03/02 05:58:15;;;;;;;21.17;9.82;;;2.00;99.90;;;;;;5000750;28;20137;-42
2023/03/02 06:00:41;;;;;;;23.08;10.30;;;1.90;99.90;;;;;;5005564;28;20076;-41
2023/03/02 06:03:06;;;;;;;24.70;10.70;;;1.90;99.90;;;;;;5015436;28;20077;-42
2023/03/02 06:05:33;;;;;;;23.40;10.50;;;1.90;99.90;;;;;;5004133;28;20054;-42
2023/03/02 06:07:58;;;;;;;21.85;10.00;;;1.90;99.90;;;;;;5005764;28;20602;-45
2023/03/02 06:10:24;;;;;;;22.63;10.32;;;1.90;99.90;;;;;;4999070;28;20056;-41
2023/03/02 06:12:50;;;;;;;20.48;10.10;;;2.00;99.90;;;;;;5002472;28;20760;-37
2023/03/02 06:15:16;;;;;;;24.58;10.10;;;2.00;99.90;;;;;;5000075;28;20057;-35
2023/03/02 06:17:42;;;;;;;26.63;11.30;;;2.00;99.90;;;;;;5000122;28;20054;-36
2023/03/02 06:20:09;;;;;;;24.88;11.13;;;2.00;99.90;;;;;;5000867;28;20065;-37
2023/03/02 06:22:44;;;;;;;26.00;11.77;;;2.00;99.90;;;;;;4999815;28;20054;-36
2023/03/02 06:25:27;;;;;;;26.80;11.75;;;2.00;99.90;;;;;;4999085;28;20045;-36
2023/03/02 06:27:53;;;;;;;25.52;10.55;;;2.00;99.90;;;;;;5000937;28;20141;-35
2023/03/02 06:30:23;;;;;;;31.05;11.07;;;2.00;99.90;;;;;;5000324;28;20145;-36
2023/03/02 06:32:49;;;;;;;26.83;11.70;;;2.00;99.90;;;;;;5003619;28;20183;-37
2023/03/02 06:35:15;;;;;;;23.27;11.10;;;1.90;99.90;;;;;;5004552;28;20420;-35
2023/03/02 06:37:40;;;;;;;23.70;10.18;;;1.90;99.90;;;;;;5004328;28;20199;-36
2023/03/02 06:40:09;;;;;;;25.05;10.68;;;1.90;99.90;;;;;;5001647;28;20069;-36
2023/03/02 06:42:34;;;;;;;22.83;9.65;;;1.90;99.90;;;;;;5002425;28;20503;-36
2023/03/02 06:45:00;;;;;;;27.42;10.35;;;1.90;99.90;;;;;;4999548;28;20120;-37
2023/03/02 06:47:26;;;;;;;23.23;10.70;;;1.90;99.90;;;;;;5000896;28;20053;-35
2023/03/02 06:49:51;;;;;;;25.23;10.38;;;1.90;99.90;;;;;;5003793;28;20081;-35
2023/03/02 06:52:17;;;;;;;22.63;9.43;;;1.90;99.90;;;;;;4998444;28;20107;-36
2023/03/02 06:54:43;;;;;;;21.77;9.85;;;1.80;99.90;;;;;;5004996;28;20073;-36
2023/03/02 06:57:09;;;;;;;26.40;11.02;;;1.90;99.90;;;;;;5000634;28;20112;-36
2023/03/02 06:59:35;;;;;;;22.13;9.18;;;1.90;99.90;;;;;;5002781;28;20100;-35
2023/03/02 07:02:01;;;;;;;21.10;9.95;;;1.90;99.90;;;;;;4995906;28;20046;-35
2023/03/02 07:04:27;;;;;;;23.67;10.30;;;1.90;99.90;;;;;;5000243;28;20042;-35
2023/03/02 07:06:53;;;;;;;26.27;11.90;;;2.00;99.90;;;;;;4992578;28;20054;-35
2023/03/02 07:09:19;;;;;;;20.98;10.15;;;2.00;99.90;;;;;;5005834;28;20537;-35
2023/03/02 07:11:44;;;;;;;36.95;11.98;;;2.00;99.90;;;;;;5000519;28;20069;-35
2023/03/02 07:14:10;;;;;;;23.85;10.38;;;2.00;99.90;;;;;;4999063;28;20038;-35
2023/03/02 07:16:36;;;;;;;29.10;11.70;;;2.00;99.90;;;;;;4996330;28;20133;-36
2023/03/02 07:19:01;;;;;;;24.83;10.30;;;2.00;99.90;;;;;;5013715;28;20074;-35
2023/03/02 07:21:27;;;;;;;31.42;10.80;;;2.00;99.90;;;;;;4998007;28;20085;-35
2023/03/02 07:23:53;;;;;;;41.92;11.82;;;2.00;99.90;;;;;;4999338;28;20544;-35
2023/03/02 07:26:18;;;;;;;26.65;10.98;;;2.00;99.90;;;;;;5000049;28;20400;-35
2023/03/02 07:28:44;;;;;;;23.23;9.63;;;2.00;99.90;;;;;;5002673;28;20053;-35
2023/03/02 07:31:10;;;;;;;26.02;10.10;;;1.90;99.90;;;;;;4994283;28;20045;-35
2023/03/02 07:33:38;;;;;;;27.63;10.48;;;1.90;99.90;;;;;;5003488;28;20132;-35
2023/03/02 07:36:05;;;;;;;26.20;10.38;;;1.90;99.90;;;;;;4997290;28;20054;-35
2023/03/02 07:38:30;;;;;;;24.23;10.18;;;1.90;99.90;;;;;;4999051;28;20045;-35
2023/03/02 07:40:56;;;;;;;28.40;11.07;;;1.90;99.90;;;;;;5000246;28;20057;-36
2023/03/02 07:43:27;;;;;;;27.02;11.18;;;1.90;99.90;;;;;;4997180;28;20060;-35
2023/03/02 07:45:53;;;;;;;23.60;9.85;;;2.00;99.90;;;;;;4995672;28;20046;-36
2023/03/02 07:48:21;;;;;;;24.30;11.10;;;2.00;99.90;;;;;;4997030;28;20045;-37
2023/03/02 07:50:47;;;;;;;25.27;10.57;;;2.00;99.90;;;;;;4998079;28;20516;-37
2023/03/02 07:53:13;;;;;;;31.25;12.40;;;2.00;99.90;;;;;;4992972;28;20061;-37
2023/03/02 07:55:40;;;;;;;27.55;10.93;;;2.10;99.90;;;;;;4999333;28;20050;-46
2023/03/02 07:58:06;;;;;;;26.77;12.15;;;2.10;99.90;;;;;;4995823;28;20111;-43
2023/03/02 08:00:32;;;;;;;26.77;10.98;;;2.10;99.90;;;;;;4996969;28;20061;-47
2023/03/02 08:02:57;;;;;;;27.85;11.73;;;2.10;99.90;;;;;;4999505;28;20153;-47
2023/03/02 08:05:23;;;;;;;28.05;11.45;;;2.10;99.90;;;;;;5001533;28;20115;-43
2023/03/02 08:07:49;;;;;;;27.15;10.95;;;2.10;99.90;;;;;;4996701;28;20174;-42
2023/03/02 08:10:15;;;;;;;26.73;11.07;;;2.20;99.90;;;;;;5002049;28;20842;-45
2023/03/02 08:12:41;;;;;;;24.60;11.45;;;2.10;99.90;;;;;;5003218;28;20069;-49
2023/03/02 08:15:08;;;;;;;27.58;11.35;;;2.20;99.90;;;;;;4998418;28;20488;-49
2023/03/02 08:17:33;;;;;;;24.33;10.32;;;2.20;99.90;;;;;;5000575;28;20050;-43
2023/03/02 08:19:59;;;;;;;25.45;10.90;;;2.20;99.90;;;;;;4999542;28;20479;-45
2023/03/02 08:22:25;;;;;;;22.77;9.88;;;2.20;99.90;;;;;;5000556;28;20046;-47
2023/03/02 08:24:50;;;;;;;25.45;10.63;;;2.30;99.90;;;;;;4994579;28;20053;-45
2023/03/02 08:27:16;;;;;;;32.30;11.45;;;2.30;99.90;;;;;;4997620;28;20066;-47
2023/03/02 08:29:42;;;;;;;27.17;11.25;;;2.30;99.90;;;;;;4998465;28;20129;-36
2023/03/02 08:32:08;;;;;;;29.48;11.10;;;2.30;99.90;;;;;;4997664;28;20590;-36
2023/03/02 08:34:33;;;;;;;29.95;12.35;;;2.40;99.90;;;;;;5001783;28;20054;-36
2023/03/02 08:36:59;;;;;;;23.90;10.82;;;2.40;99.90;;;;;;4998845;28;20566;-36
2023/03/02 08:39:29;;;;;;;26.17;12.20;;;2.40;99.90;;;;;;5002798;28;20058;-36
2023/03/02 08:41:55;;;;;;;23.77;10.30;;;2.40;99.90;;;;;;4999821;28;20046;-36
2023/03/02 08:44:21;;;;;;;24.65;10.57;;;2.50;99.90;;;;;;4994605;28;20046;-36
2023/03/02 08:46:51;;;;;;;24.13;10.60;;;2.50;99.90;;;;;;4997196;28;20058;-36
2023/03/02 08:49:18;;;;;;;26.00;10.98;;;2.50;99.90;;;;;;4998287;28;20479;-37
2023/03/02 08:51:45;;;;;;;28.27;11.82;;;2.50;99.90;;;;;;5001152;28;20077;-36
2023/03/02 08:54:11;;;;;;;22.52;9.02;;;2.50;99.90;;;;;;5002664;28;20065;-37
2023/03/02 08:56:38;;;;;;;21.23;10.50;;;2.60;99.90;;;;;;5002194;28;20057;-36
2023/03/02 08:59:06;;;;;;;24.05;10.15;;;2.70;99.90;;;;;;5000480;28;20058;-36
2023/03/02 09:01:34;;;;;;;25.63;11.52;;;2.70;99.90;;;;;;4998665;28;20080;-36
2023/03/02 09:04:01;;;;;;;27.42;10.88;;;2.70;99.90;;;;;;5002161;28;20081;-36
2023/03/02 09:06:28;;;;;;;27.70;11.05;;;2.80;99.90;;;;;;4996697;28;20168;-36
2023/03/02 09:08:54;;;;;;;25.33;10.02;;;2.80;99.90;;;;;;4998781;28;20096;-36
2023/03/02 09:11:20;;;;;;;27.38;10.57;;;2.80;99.90;;;;;;4999015;28;20062;-36
2023/03/02 09:13:46;;;;;;;28.60;11.40;;;2.90;99.90;;;;;;5003086;28;20042;-36
2023/03/02 09:16:13;;;;;;;27.25;10.88;;;2.90;99.90;;;;;;5001362;28;20100;-36
2023/03/02 09:18:39;;;;;;;26.45;11.57;;;2.90;99.90;;;;;;5001061;28;20057;-36
2023/03/02 09:21:05;;;;;;;27.33;12.27;;;2.90;99.90;;;;;;5001470;28;20151;-35
2023/03/02 09:23:31;;;;;;;26.20;11.68;;;3.00;99.90;;;;;;4999106;28;20188;-36
2023/03/02 09:25:57;;;;;;;27.40;11.25;;;3.10;99.90;;;;;;5002301;28;20490;-36
2023/03/02 09:28:23;;;;;;;27.27;11.27;;;3.10;99.90;;;;;;4997502;28;20061;-38
2023/03/02 09:30:56;;;;;;;25.73;11.13;;;3.10;99.90;;;;;;5000087;28;20053;-39
2023/03/02 09:33:21;;;;;;;21.55;10.40;;;3.20;99.90;;;;;;4998483;28;20088;-37
2023/03/02 09:35:47;;;;;;;29.65;11.25;;;3.30;99.90;;;;;;5003038;28;20046;-36
2023/03/02 09:38:17;;;;;;;25.25;11.30;;;3.40;99.90;;;;;;5002896;28;20103;-37
2023/03/02 09:40:50;;;;;;;24.55;10.95;;;3.40;99.90;;;;;;5002864;28;20133;-37
2023/03/02 09:43:37;;;;;;;25.05;10.45;;;3.40;99.90;;;;;;5002744;28;20133;-37
2023/03/02 09:46:11;;;;;;;20.70;9.60;;;3.50;99.90;;;;;;5000691;28;20050;-37
2023/03/02 09:48:59;;;;;;;23.88;11.07;;;3.60;99.90;;;;;;5004798;28;20541;-37
2023/03/02 09:51:28;;;;;;;22.08;9.88;;;3.70;99.90;;;;;;4998065;28;20057;-37
2023/03/02 09:54:08;;;;;;;24.25;10.27;;;3.80;99.90;;;;;;5003874;28;20045;-35
2023/03/02 09:56:41;;;;;;;25.80;10.52;;;3.90;99.90;;;;;;4998928;28;20094;-37
2023/03/02 09:59:25;;;;;;;20.92;9.65;;;3.90;99.90;;;;;;5003039;28;20058;-37
2023/03/02 10:02:03;;;;;;;18.95;9.00;;;3.90;99.90;;;;;;4997884;28;20054;-37
2023/03/02 10:04:42;;;;;;;18.10;8.98;;;4.00;99.90;;;;;;5001883;28;20054;-37
2023/03/02 10:07:25;;;;;;;17.63;8.45;;;4.10;99.90;;;;;;5003948;28;20046;-37
2023/03/02 10:09:50;;;;;;;16.48;8.68;;;4.10;99.90;;;;;;5001290;28;20042;-37
2023/03/02 10:12:22;;;;;;;15.55;7.78;;;4.30;99.90;;;;;;5007370;28;20127;-36
2023/03/02 10:15:04;;;;;;;17.90;8.35;;;4.40;99.90;;;;;;5005061;28;20081;-38
2023/03/02 10:17:50;;;;;;;16.25;7.85;;;4.40;99.90;;;;;;4999630;28;20058;-41
2023/03/02 10:20:24;;;;;;;15.10;7.90;;;4.50;99.90;;;;;;5003583;28;20046;-45
2023/03/02 10:22:55;;;;;;;16.85;8.32;;;4.50;99.90;;;;;;5001876;28;20141;-44
2023/03/02 10:25:47;;;;;;;19.15;8.93;;;4.70;99.90;;;;;;4998272;28;20837;-42
2023/03/02 10:28:18;;;;;;;15.67;7.70;;;4.80;99.90;;;;;;4996376;28;20089;-50
2023/03/02 10:30:48;;;;;;;17.08;9.05;;;5.00;99.90;;;;;;5000490;28;20062;-43
2023/03/02 10:33:17;;;;;;;18.63;8.75;;;5.20;99.90;;;;;;5003943;28;20057;-43
2023/03/02 10:35:47;;;;;;;19.35;9.73;;;5.30;99.90;;;;;;5000617;28;20104;-45
2023/03/02 10:38:16;;;;;;;17.85;9.35;;;5.20;99.90;;;;;;5000580;28;20124;-48
2023/03/02 10:40:46;;;;;;;17.13;8.77;;;5.20;99.90;;;;;;5003669;28;20463;-44
2023/03/02 10:43:30;;;;;;;16.27;7.72;;;5.10;99.90;;;;;;5000118;28;20064;-44
2023/03/02 10:46:00;;;;;;;16.42;8.40;;;5.10;99.90;;;;;;5003939;28;20446;-42
2023/03/02 10:48:26;;;;;;;17.95;8.15;;;5.30;99.90;;;;;;5001292;28;20061;-42
2023/03/02 10:50:57;;;;;;;19.17;10.45;;;5.40;99.90;;;;;;5003955;28;20107;-41
2023/03/02 10:53:23;;;;;;;16.65;8.35;;;5.60;99.90;;;;;;5002956;28;20269;-46
2023/03/02 10:55:51;;;;;;;19.27;9.02;;;5.70;99.90;;;;;;5000553;28;20050;-42
2023/03/02 10:58:32;;;;;;;16.13;8.50;;;5.70;99.90;;;;;;4998081;28;20455;-42
2023/03/02 11:01:13;;;;;;;17.95;9.25;;;5.60;99.90;;;;;;5003164;28;20069;-43
2023/03/02 11:03:39;;;;;;;19.25;9.50;;;5.70;99.90;;;;;;4998400;28;20042;-38
2023/03/02 11:06:19;;;;;;;15.40;8.95;;;5.80;99.90;;;;;;4995137;28;20054;-37
2023/03/02 11:08:45;;;;;;;16.15;8.73;;;6.10;99.90;;;;;;5001769;28;20575;-38
2023/03/02 11:11:22;;;;;;;15.77;7.70;;;6.20;99.90;;;;;;5003166;28;20083;-37
2023/03/02 11:13:47;;;;;;;21.10;9.80;;;6.40;99.90;;;;;;5003156;28;20410;-37
2023/03/02 11:16:16;;;;;;;16.17;8.25;;;6.50;99.90;;;;;;5000569;28;20050;-37
2023/03/02 11:19:01;;;;;;;16.35;8.98;;;6.60;99.90;;;;;;5004384;28;20092;-37
2023/03/02 11:21:34;;;;;;;13.00;6.93;;;6.80;99.90;;;;;;5002920;28;20053;-37
2023/03/02 11:24:14;;;;;;;15.55;7.40;;;7.00;99.90;;;;;;5000547;28;20073;-37
2023/03/02 11:26:55;;;;;;;13.68;7.85;;;7.20;99.90;;;;;;5000052;28;20104;-37
2023/03/02 11:29:36;;;;;;;15.48;7.60;;;7.10;99.90;;;;;;5002724;28;20064;-38
2023/03/02 11:32:26;;;;;;;14.98;7.50;;;7.10;99.90;;;;;;4997891;28;20057;-37
2023/03/02 11:35:01;;;;;;;16.08;7.95;;;7.00;99.90;;;;;;4998794;28;20058;-37
2023/03/02 11:37:50;;;;;;;15.32;8.20;;;7.00;99.90;;;;;;5005595;28;20057;-37
2023/03/02 11:40:30;;;;;;;16.67;7.90;;;7.00;99.90;;;;;;5022934;28;20045;-49
2023/03/02 11:42:58;;;;;;;15.60;8.15;;;7.20;99.90;;;;;;5004960;28;20080;-48
2023/03/02 11:45:28;;;;;;;15.40;8.60;;;7.40;99.90;;;;;;5010161;28;20891;-47
2023/03/02 11:48:12;;;;;;;16.13;8.38;;;7.50;99.90;;;;;;5006962;28;20068;-49
2023/03/02 11:50:50;;;;;;;16.17;7.90;;;7.70;99.90;;;;;;5003536;28;20668;-42
2023/03/02 11:53:20;;;;;;;14.82;8.10;;;7.80;99.90;;;;;;5006306;28;20065;-45
2023/03/02 11:55:48;;;;;;;15.32;7.68;;;7.90;99.80;;;;;;5005435;28;20046;-42
2023/03/02 11:58:25;;;;;;;14.32;7.80;;;7.90;99.30;;;;;;5004361;28;20049;-44
2023/03/02 12:00:53;;;;;;;15.65;8.13;;;8.00;99.20;;;;;;5006350;28;20049;-43
2023/03/02 12:03:31;;;;;;;16.42;7.68;;;8.10;98.60;;;;;;5006780;28;20066;-45
2023/03/02 12:06:07;;;;;;;14.15;7.65;;;8.30;98.30;;;;;;5003660;28;20084;-43
2023/03/02 12:08:43;;;;;;;13.18;7.35;;;8.50;97.80;;;;;;5004588;28;20365;-42
2023/03/02 12:11:17;;;;;;;12.85;6.45;;;8.90;97.40;;;;;;5007272;28;20053;-43
2023/03/02 12:14:02;;;;;;;13.27;7.30;;;9.30;96.20;;;;;;5006801;28;20099;-42
2023/03/02 12:16:39;;;;;;;12.45;6.65;;;9.70;94.90;;;;;;5005966;28;20507;-43
2023/03/02 12:19:13;;;;;;;15.90;8.02;;;10.10;94.00;;;;;;5010722;28;20112;-45
2023/03/02 12:21:41;;;;;;;13.68;6.95;;;10.60;93.20;;;;;;4998949;28;20049;-45
2023/03/02 12:24:26;;;;;;;15.85;7.85;;;10.90;91.40;;;;;;4995608;28;20053;-43
2023/03/02 12:27:05;;;;;;;13.45;7.85;;;11.20;90.20;;;;;;5001030;28;20424;-44
2023/03/02 12:30:23;;;;;;;15.45;7.78;;;11.40;87.60;;;;;;4992218;28;20571;-46
2023/03/02 12:33:21;;;;;;;12.02;7.15;;;11.70;85.80;;;;;;4992614;28;20049;-43
2023/03/02 12:35:49;;;;;;;14.77;7.22;;;12.10;82.90;;;;;;4976151;28;20057;-43
2023/03/02 12:38:32;;;;;;;12.55;7.15;;;12.50;83.30;;;;;;4995142;28;20403;-42
2023/03/02 12:41:26;;;;;;;13.05;7.07;;;12.80;79.70;;;;;;4999205;28;20188;-43
2023/03/02 12:43:54;;;;;;;12.38;6.85;;;13.10;77.80;;;;;;5000662;28;20632;-49
2023/03/02 12:46:26;;;;;;;12.98;7.65;;;13.40;77.10;;;;;;4998019;28;20838;-44
2023/03/02 12:49:14;;;;;;;11.87;6.80;;;13.80;73.50;;;;;;5000511;28;20526;-43
2023/03/02 12:51:55;;;;;;;13.45;7.10;;;14.00;72.20;;;;;;5002020;28;20050;-53